Time;durP1;ratioP1;P1;durP2;ratioP2;P2;SDS_P1;SDS_P2;PMS_P1;PMS_P2;Temp;Humidity;BMP_temperature;BMP_pressure;BME280_temperature;BME280_humidity;BME280_pressure;Samples;Min_cycle;Max_cycle;Signal;HPM_P1;HPM_P2
2023/04/03 00:01:28;;;;;;;3.10;2.38;;;4.90;99.90;;;;;;5075892;28;20058;-72
2023/04/03 00:03:54;;;;;;;3.28;1.98;;;5.00;99.90;;;;;;5093833;28;20020;-71
2023/04/03 00:06:20;;;;;;;2.55;1.92;;;4.90;99.90;;;;;;5075836;28;20464;-72
2023/04/03 00:08:46;;;;;;;4.03;2.67;;;5.00;99.90;;;;;;5093916;28;20032;-72
2023/04/03 00:11:11;;;;;;;2.38;2.17;;;5.00;99.90;;;;;;5075859;28;20081;-72
2023/04/03 00:13:38;;;;;;;2.75;2.38;;;5.00;99.90;;;;;;5075767;28;20028;-72
2023/04/03 00:16:04;;;;;;;4.13;3.10;;;5.00;99.90;;;;;;5092541;28;20059;-72
2023/04/03 00:18:30;;;;;;;2.67;2.08;;;5.00;99.90;;;;;;5093721;28;20081;-73
2023/04/03 00:20:56;;;;;;;3.45;2.70;;;5.00;99.90;;;;;;5075681;28;20020;-72
2023/04/03 00:23:23;;;;;;;4.15;2.95;;;4.90;99.90;;;;;;5075598;28;20028;-72
2023/04/03 00:25:50;;;;;;;4.47;2.65;;;5.00;99.90;;;;;;5075730;28;20035;-72
2023/04/03 00:28:16;;;;;;;2.97;2.67;;;5.00;99.90;;;;;;5093970;28;20016;-72
2023/04/03 00:30:41;;;;;;;3.78;2.45;;;5.00;99.90;;;;;;5075559;28;20032;-72
2023/04/03 00:33:09;;;;;;;3.78;2.45;;;5.00;99.90;;;;;;5096044;28;20028;-73
2023/04/03 00:35:35;;;;;;;2.47;2.13;;;4.90;99.90;;;;;;5079552;28;20459;-73
2023/04/03 00:38:01;;;;;;;3.25;2.72;;;5.00;99.90;;;;;;5079466;28;20035;-72
2023/04/03 00:40:27;;;;;;;2.28;2.08;;;4.90;99.90;;;;;;5097311;28;20031;-72
2023/04/03 00:42:59;;;;;;;3.38;2.60;;;4.90;99.90;;;;;;5097508;28;20028;-72
2023/04/03 00:45:28;;;;;;;3.83;2.55;;;4.90;99.90;;;;;;5079305;28;20562;-72
2023/04/03 00:47:54;;;;;;;3.75;2.35;;;4.90;99.90;;;;;;5079258;28;20028;-72
2023/04/03 00:50:20;;;;;;;2.22;2.00;;;4.90;99.90;;;;;;5096144;28;20437;-72
2023/04/03 00:52:48;;;;;;;4.38;2.65;;;4.90;99.90;;;;;;5078957;28;20024;-72
2023/04/03 00:55:16;;;;;;;2.83;2.50;;;4.90;99.90;;;;;;5096107;28;20070;-72
2023/04/03 00:57:42;;;;;;;3.45;2.50;;;4.90;99.90;;;;;;5096944;28;20472;-73
2023/04/03 01:00:12;;;;;;;3.88;2.38;;;4.90;99.90;;;;;;5095960;28;20030;-72
2023/04/03 01:02:40;;;;;;;9.82;3.70;;;4.90;99.90;;;;;;5096798;28;20028;-72
2023/04/03 01:05:06;;;;;;;3.38;2.50;;;4.90;99.90;;;;;;5097189;28;20024;-72
2023/04/03 01:07:36;;;;;;;3.65;2.30;;;4.90;99.90;;;;;;5095770;28;20067;-72
2023/04/03 01:10:07;;;;;;;5.18;2.70;;;4.90;99.90;;;;;;5097436;28;20060;-72
2023/04/03 01:12:36;;;;;;;5.05;2.40;;;4.90;99.90;;;;;;5097456;28;20020;-72
2023/04/03 01:15:14;;;;;;;5.85;2.80;;;4.90;99.90;;;;;;5096850;28;20030;-72
2023/04/03 01:17:43;;;;;;;3.30;2.67;;;4.90;99.90;;;;;;5097057;28;20403;-72
2023/04/03 01:20:11;;;;;;;3.50;2.30;;;4.90;99.90;;;;;;5078976;28;20028;-72
2023/04/03 01:23:12;;;;;;;3.05;2.17;;;4.90;99.90;;;;;;5078610;28;20609;-72
2023/04/03 01:25:50;;;;;;;4.10;2.50;;;4.90;99.90;;;;;;5096637;28;20369;-72
2023/04/03 01:28:25;;;;;;;3.25;2.63;;;4.90;99.90;;;;;;5096373;28;20020;-72
2023/04/03 01:31:35;;;;;;;3.45;2.67;;;4.90;99.90;;;;;;5096400;28;20031;-72
2023/04/03 01:34:02;;;;;;;3.85;2.40;;;4.90;99.90;;;;;;5014199;28;20037;-72
2023/04/03 01:36:30;;;;;;;5.30;2.80;;;4.80;99.90;;;;;;5085224;28;20110;-72
2023/04/03 01:38:58;;;;;;;1.73;1.58;;;4.80;99.90;;;;;;5078532;28;20016;-72
2023/04/03 01:41:25;;;;;;;4.18;2.35;;;4.80;99.90;;;;;;5078338;28;20032;-72
2023/04/03 01:43:51;;;;;;;4.05;2.75;;;4.80;99.90;;;;;;5095604;28;20115;-72
2023/04/03 01:46:18;;;;;;;4.63;2.33;;;4.80;99.90;;;;;;5095050;28;20028;-72
2023/04/03 01:48:44;;;;;;;4.68;2.40;;;4.80;99.90;;;;;;5078147;28;20032;-72
2023/04/03 01:51:10;;;;;;;3.63;2.50;;;4.80;99.90;;;;;;5078141;28;20024;-72
2023/04/03 01:53:36;;;;;;;4.35;2.85;;;4.80;99.90;;;;;;5096037;28;20112;-72
2023/04/03 01:56:02;;;;;;;3.90;2.55;;;4.80;99.90;;;;;;5096226;28;20463;-72
2023/04/03 01:58:27;;;;;;;3.08;2.40;;;4.80;99.90;;;;;;5078169;28;20035;-72
2023/04/03 02:00:54;;;;;;;2.15;1.95;;;4.80;99.90;;;;;;5078351;28;20024;-72
2023/04/03 02:03:20;;;;;;;5.75;2.25;;;4.80;99.90;;;;;;5095959;28;20024;-72
2023/04/03 02:05:45;;;;;;;3.75;2.72;;;4.80;99.90;;;;;;5077759;28;20028;-72
2023/04/03 02:08:11;;;;;;;3.60;2.58;;;4.80;99.90;;;;;;5077419;28;20035;-72
2023/04/03 02:10:37;;;;;;;2.63;2.30;;;4.80;99.90;;;;;;5077723;28;20030;-72
2023/04/03 02:13:03;;;;;;;3.05;2.47;;;4.80;99.90;;;;;;5095538;28;20031;-72
2023/04/03 02:15:29;;;;;;;3.70;2.55;;;4.70;99.90;;;;;;5077742;28;20471;-72
2023/04/03 02:17:55;;;;;;;4.50;2.45;;;4.70;99.90;;;;;;5077604;28;20495;-72
2023/04/03 02:20:21;;;;;;;4.00;2.65;;;4.80;99.90;;;;;;5077476;28;20111;-72
2023/04/03 02:22:46;;;;;;;4.50;3.20;;;4.70;99.90;;;;;;5095842;28;20028;-72
2023/04/03 02:25:12;;;;;;;3.60;2.40;;;4.70;99.90;;;;;;5095674;28;20032;-72
2023/04/03 02:27:38;;;;;;;4.05;2.85;;;4.80;99.90;;;;;;5077460;28;20356;-73
2023/04/03 02:30:05;;;;;;;5.03;2.95;;;4.80;99.90;;;;;;5095924;28;20062;-72
2023/04/03 02:32:31;;;;;;;4.32;3.75;;;4.80;99.90;;;;;;5095960;28;20043;-73
2023/04/03 02:34:56;;;;;;;3.35;2.67;;;4.80;99.90;;;;;;5079076;28;20357;-72
2023/04/03 02:37:22;;;;;;;4.72;2.97;;;4.80;99.90;;;;;;5097175;28;20034;-72
2023/04/03 02:39:48;;;;;;;3.72;2.42;;;4.80;99.90;;;;;;5079027;28;20077;-72
2023/04/03 02:42:14;;;;;;;3.38;2.35;;;4.80;99.90;;;;;;5078937;28;20028;-72
2023/04/03 02:44:40;;;;;;;6.90;3.50;;;4.80;99.90;;;;;;5078714;28;20032;-73
2023/04/03 02:47:05;;;;;;;3.42;2.63;;;4.80;99.90;;;;;;5096212;28;20058;-73
2023/04/03 02:49:31;;;;;;;5.30;2.92;;;4.80;99.90;;;;;;5095922;28;20081;-72
2023/04/03 02:51:57;;;;;;;4.78;2.75;;;4.80;99.90;;;;;;5077506;28;20032;-72
2023/04/03 02:54:24;;;;;;;5.30;2.83;;;4.80;99.90;;;;;;5077483;28;20048;-72
2023/04/03 02:56:50;;;;;;;5.15;3.13;;;4.80;99.90;;;;;;5076514;28;20028;-72
2023/04/03 02:59:16;;;;;;;5.45;3.17;;;4.80;99.90;;;;;;5095462;28;20054;-72
2023/04/03 03:01:41;;;;;;;5.00;3.10;;;4.80;99.90;;;;;;5094963;28;20074;-72
2023/04/03 03:04:07;;;;;;;6.30;3.08;;;4.80;99.90;;;;;;5094948;28;20028;-72
2023/04/03 03:06:33;;;;;;;5.70;3.10;;;4.80;99.90;;;;;;5095115;28;20051;-72
2023/04/03 03:08:58;;;;;;;3.28;2.67;;;4.80;99.90;;;;;;5094848;28;20016;-72
2023/04/03 03:11:25;;;;;;;3.85;2.92;;;4.80;99.90;;;;;;5094965;28;20016;-72
2023/04/03 03:13:50;;;;;;;3.95;2.95;;;4.80;99.90;;;;;;5095259;28;20142;-72
2023/04/03 03:16:16;;;;;;;3.55;3.03;;;4.80;99.90;;;;;;5095836;28;20056;-72
2023/04/03 03:18:42;;;;;;;3.45;2.75;;;4.80;99.90;;;;;;5076800;28;20035;-72
2023/04/03 03:21:10;;;;;;;5.15;3.08;;;4.80;99.90;;;;;;5094645;28;20458;-72
2023/04/03 03:23:36;;;;;;;4.67;3.03;;;4.80;99.90;;;;;;5094460;28;20028;-72
2023/04/03 03:26:06;;;;;;;3.60;3.20;;;4.80;99.90;;;;;;5076032;28;20841;-72
2023/04/03 03:28:32;;;;;;;4.50;2.72;;;4.80;99.90;;;;;;5076894;28;20387;-72
2023/04/03 03:30:59;;;;;;;5.85;3.38;;;4.80;99.90;;;;;;5095145;28;20111;-73
2023/04/03 03:33:25;;;;;;;5.38;3.25;;;4.80;99.90;;;;;;5094863;28;20038;-73
2023/04/03 03:35:52;;;;;;;4.32;3.13;;;4.80;99.90;;;;;;5077264;28;20028;-72
2023/04/03 03:38:18;;;;;;;5.75;3.42;;;4.80;99.90;;;;;;5077616;28;20031;-73
2023/04/03 03:40:44;;;;;;;6.68;2.60;;;4.80;99.90;;;;;;5077970;28;20027;-72
2023/04/03 03:43:10;;;;;;;4.57;3.20;;;4.80;99.90;;;;;;5096435;28;20092;-72
2023/04/03 03:45:35;;;;;;;5.00;3.10;;;4.80;99.90;;;;;;5078019;28;20467;-72
2023/04/03 03:48:02;;;;;;;4.57;3.03;;;4.80;99.90;;;;;;5077763;28;20026;-72
2023/04/03 03:50:28;;;;;;;3.30;2.60;;;4.80;99.90;;;;;;5077800;28;20024;-72
2023/04/03 03:52:53;;;;;;;5.22;3.00;;;4.80;99.90;;;;;;5095820;28;20048;-73
2023/04/03 03:55:19;;;;;;;3.30;2.88;;;4.80;99.90;;;;;;5077815;28;20032;-73
2023/04/03 03:57:45;;;;;;;5.43;2.90;;;4.80;99.90;;;;;;5077793;28;20461;-73
2023/04/03 04:00:11;;;;;;;5.05;3.03;;;4.80;99.90;;;;;;5095316;28;20050;-72
2023/04/03 04:02:37;;;;;;;4.60;2.78;;;4.80;99.90;;;;;;5093408;28;20181;-72
2023/04/03 04:05:03;;;;;;;3.80;2.50;;;4.80;99.90;;;;;;5095136;28;20520;-72
2023/04/03 04:07:29;;;;;;;5.80;3.30;;;4.80;99.90;;;;;;5078927;28;20145;-73
2023/04/03 04:09:54;;;;;;;3.00;2.47;;;4.80;99.90;;;;;;5102464;28;20055;-73
2023/04/03 04:12:20;;;;;;;4.95;2.80;;;4.80;99.90;;;;;;5102682;28;20056;-73
2023/04/03 04:14:47;;;;;;;7.70;2.67;;;4.80;99.90;;;;;;5084329;28;20020;-73
2023/04/03 04:17:16;;;;;;;4.80;3.28;;;4.80;99.90;;;;;;5100946;28;20032;-73
2023/04/03 04:19:41;;;;;;;;;;;4.80;99.90;;;;;;5082578;28;20020;-72
2023/04/03 04:22:07;;;;;;;5.28;2.58;;;4.80;99.90;;;;;;5099824;28;19992;-73
2023/04/03 04:24:33;;;;;;;5.25;2.70;;;4.80;99.90;;;;;;5101050;28;20028;-73
2023/04/03 04:26:58;;;;;;;9.25;3.30;;;4.80;99.90;;;;;;5083068;28;20024;-73
2023/04/03 04:29:24;;;;;;;4.88;2.85;;;4.80;99.90;;;;;;5082967;28;20063;-72
2023/04/03 04:31:50;;;;;;;5.47;2.97;;;4.80;99.90;;;;;;5100879;28;20102;-73
2023/04/03 04:34:16;;;;;;;3.97;2.72;;;4.80;99.90;;;;;;5101246;28;20028;-73
2023/04/03 04:36:41;;;;;;;4.82;3.05;;;4.80;99.90;;;;;;5082557;28;20028;-72
2023/04/03 04:39:07;;;;;;;6.65;2.83;;;4.80;99.90;;;;;;5100693;28;20020;-73
2023/04/03 04:41:34;;;;;;;4.95;3.00;;;4.70;99.90;;;;;;5082364;28;20031;-73
2023/04/03 04:44:00;;;;;;;3.58;2.80;;;4.70;99.90;;;;;;5100285;28;20052;-73
2023/04/03 04:46:26;;;;;;;5.53;2.90;;;4.70;99.90;;;;;;5100984;28;20071;-72
2023/04/03 04:48:52;;;;;;;4.65;3.15;;;4.70;99.90;;;;;;5082229;28;20070;-73
2023/04/03 04:51:18;;;;;;;4.18;2.80;;;4.70;99.90;;;;;;5099981;28;20100;-72
2023/04/03 04:53:43;;;;;;;4.15;3.00;;;4.70;99.90;;;;;;5081655;28;20068;-68
2023/04/03 04:56:10;;;;;;;4.95;2.78;;;4.70;99.90;;;;;;5100466;28;20028;-73
2023/04/03 04:58:36;;;;;;;3.92;2.95;;;4.60;99.90;;;;;;5082022;28;20031;-73
2023/04/03 05:01:04;;;;;;;5.20;2.90;;;4.70;99.90;;;;;;5081937;28;20464;-73
2023/04/03 05:03:30;;;;;;;5.33;3.23;;;4.70;99.90;;;;;;5082374;28;20054;-73
2023/04/03 05:05:56;;;;;;;6.72;3.13;;;4.70;99.90;;;;;;5100438;28;20031;-73
2023/04/03 05:08:21;;;;;;;5.07;2.78;;;4.70;99.90;;;;;;5082638;28;20417;-73
2023/04/03 05:10:47;;;;;;;3.30;2.40;;;4.70;99.90;;;;;;5100065;28;20031;-74
2023/04/03 05:13:14;;;;;;;6.55;2.95;;;4.70;99.90;;;;;;5082201;28;20353;-74
2023/04/03 05:15:40;;;;;;;3.42;2.47;;;4.70;99.90;;;;;;5099846;28;20419;-74
2023/04/03 05:18:06;;;;;;;4.63;3.03;;;4.70;99.90;;;;;;5099938;28;20023;-73
2023/04/03 05:20:32;;;;;;;5.97;2.50;;;4.70;99.90;;;;;;5095885;28;20039;-73
2023/04/03 05:22:58;;;;;;;2.75;2.35;;;4.70;99.90;;;;;;5096684;28;20452;-74
2023/04/03 05:25:24;;;;;;;5.75;2.50;;;4.70;99.90;;;;;;5078553;28;20035;-73
2023/04/03 05:27:50;;;;;;;3.90;2.20;;;4.70;99.90;;;;;;5096816;28;20025;-73
2023/04/03 05:30:16;;;;;;;4.90;2.38;;;4.70;99.90;;;;;;5078480;28;20028;-74
2023/04/03 05:32:42;;;;;;;4.05;2.13;;;4.60;99.90;;;;;;5086184;28;20517;-74
2023/04/03 05:35:08;;;;;;;3.95;2.03;;;4.60;99.90;;;;;;5090982;28;20028;-73
2023/04/03 05:37:34;;;;;;;6.55;2.55;;;4.60;99.90;;;;;;5078703;28;20052;-74
2023/04/03 05:40:00;;;;;;;3.15;2.00;;;4.60;99.90;;;;;;5096551;28;20474;-73
2023/04/03 05:42:26;;;;;;;2.50;2.08;;;4.70;99.90;;;;;;5078268;28;20429;-73
2023/04/03 05:44:51;;;;;;;6.22;2.85;;;4.70;99.90;;;;;;5096359;28;20040;-73
2023/04/03 05:47:18;;;;;;;5.75;2.78;;;4.70;99.90;;;;;;5078384;28;20031;-74
2023/04/03 05:49:45;;;;;;;2.17;1.98;;;4.70;99.90;;;;;;5096448;28;20379;-73
2023/04/03 05:52:45;;;;;;;4.72;2.50;;;4.70;99.90;;;;;;5074485;28;20130;-74
2023/04/03 05:55:11;;;;;;;4.18;2.10;;;4.80;99.90;;;;;;5034905;28;20044;-73
2023/04/03 05:57:36;;;;;;;5.10;2.17;;;4.80;99.90;;;;;;5096155;28;20028;-74
2023/04/03 06:00:05;;;;;;;4.57;2.53;;;4.80;99.90;;;;;;5078093;28;20467;-73
2023/04/03 06:02:31;;;;;;;3.33;2.58;;;4.80;99.90;;;;;;5077812;28;20032;-74
2023/04/03 06:04:57;;;;;;;3.08;2.08;;;4.90;99.90;;;;;;5077989;28;20128;-74
2023/04/03 06:07:27;;;;;;;3.28;2.22;;;4.90;99.90;;;;;;5096457;28;20028;-74
2023/04/03 06:09:55;;;;;;;3.65;2.13;;;4.90;99.90;;;;;;5078110;28;20059;-72
2023/04/03 06:12:21;;;;;;;3.70;2.25;;;5.00;99.90;;;;;;5077740;28;20460;-73
2023/04/03 06:14:48;;;;;;;4.85;2.30;;;4.90;99.90;;;;;;5077379;28;20028;-72
2023/04/03 06:17:15;;;;;;;4.63;2.40;;;4.80;99.90;;;;;;5077659;28;20024;-72
2023/04/03 06:19:41;;;;;;;5.85;2.20;;;4.80;99.90;;;;;;5096017;28;20031;-73
2023/04/03 06:22:07;;;;;;;4.43;2.22;;;4.70;99.90;;;;;;5096343;28;20024;-73
2023/04/03 06:24:33;;;;;;;5.40;2.38;;;4.70;99.90;;;;;;5077474;28;20093;-71
2023/04/03 06:26:58;;;;;;;6.38;2.40;;;4.70;99.90;;;;;;5077489;28;20035;-73
2023/04/03 06:29:25;;;;;;;5.10;2.97;;;4.70;99.90;;;;;;5095631;28;20371;-72
2023/04/03 06:31:51;;;;;;;4.18;3.17;;;4.70;99.90;;;;;;5077362;28;20097;-72
2023/04/03 06:34:17;;;;;;;3.53;2.38;;;4.70;99.90;;;;;;5095651;28;20059;-71
2023/04/03 06:36:48;;;;;;;4.00;2.15;;;4.70;99.90;;;;;;5077287;28;20028;-71
2023/04/03 06:39:16;;;;;;;5.88;2.42;;;4.80;99.90;;;;;;5095976;28;20372;-71
2023/04/03 06:41:42;;;;;;;4.38;2.25;;;4.80;99.90;;;;;;5095022;28;20054;-73
2023/04/03 06:44:10;;;;;;;4.57;2.60;;;4.90;99.90;;;;;;5094980;28;20484;-74
2023/04/03 06:46:37;;;;;;;6.23;2.50;;;4.90;99.90;;;;;;5077072;28;20035;-72
2023/04/03 06:49:03;;;;;;;4.30;2.17;;;5.00;99.90;;;;;;5095325;28;20024;-73
2023/04/03 06:51:30;;;;;;;4.72;2.22;;;5.00;99.90;;;;;;5077695;28;20063;-73
2023/04/03 06:53:58;;;;;;;3.38;2.20;;;5.10;99.90;;;;;;5076502;28;20546;-73
2023/04/03 06:56:25;;;;;;;3.67;2.10;;;5.00;99.90;;;;;;5095013;28;20047;-75
2023/04/03 06:58:51;;;;;;;5.38;2.08;;;5.00;99.90;;;;;;5076941;28;20357;-61
2023/04/03 07:01:19;;;;;;;5.50;2.42;;;5.00;99.90;;;;;;5095800;28;20032;-76
2023/04/03 07:03:46;;;;;;;6.03;2.47;;;5.00;99.90;;;;;;5077357;28;20063;-72
2023/04/03 07:06:12;;;;;;;6.40;2.25;;;5.10;99.90;;;;;;5095662;28;20028;-72
2023/04/03 07:08:39;;;;;;;4.78;2.38;;;5.10;99.90;;;;;;5077269;28;20081;-70
2023/04/03 07:11:06;;;;;;;7.57;2.30;;;5.10;99.90;;;;;;5095598;28;20441;-72
2023/04/03 07:13:32;;;;;;;7.13;2.20;;;5.10;99.90;;;;;;5077487;28;20035;-72
2023/04/03 07:15:58;;;;;;;5.80;2.33;;;5.10;99.90;;;;;;5094616;28;20016;-69
2023/04/03 07:18:24;;;;;;;6.93;2.95;;;5.00;99.90;;;;;;5094592;28;20078;-70
2023/04/03 07:20:51;;;;;;;4.68;2.30;;;5.00;99.90;;;;;;5076384;28;20052;-69
2023/04/03 07:23:16;;;;;;;4.25;2.55;;;5.10;99.90;;;;;;5076566;28;20050;-73
2023/04/03 07:25:46;;;;;;;4.70;2.40;;;5.20;99.90;;;;;;5094752;28;20475;-70
2023/04/03 07:28:12;;;;;;;3.58;2.03;;;5.20;99.90;;;;;;5094999;28;20032;-69
2023/04/03 07:30:53;;;;;;;3.92;2.50;;;5.20;99.90;;;;;;5099868;28;20028;-74
2023/04/03 07:33:21;;;;;;;4.85;2.15;;;5.30;99.90;;;;;;5085390;28;20028;-78
2023/04/03 07:35:46;;;;;;;4.32;2.58;;;5.40;99.90;;;;;;5080085;28;20546;-71
2023/04/03 07:38:13;;;;;;;3.72;1.70;;;5.40;99.90;;;;;;5095316;28;20097;-71
2023/04/03 07:40:39;;;;;;;4.38;2.83;;;5.40;99.90;;;;;;5095297;28;20060;-76
2023/04/03 07:43:06;;;;;;;6.93;3.53;;;5.50;99.90;;;;;;5076840;28;20031;-72
2023/04/03 07:45:35;;;;;;;6.80;2.47;;;5.60;99.90;;;;;;5095909;28;20089;-72
2023/04/03 07:48:01;;;;;;;;;;;5.80;99.90;;;;;;5077863;28;20020;-72
2023/04/03 07:50:27;;;;;;;5.80;2.88;;;6.10;99.90;;;;;;5077075;28;20101;-71
2023/04/03 07:52:56;;;;;;;8.23;2.90;;;6.20;99.90;;;;;;5094164;28;20563;-71
2023/04/03 07:55:22;;;;;;;5.18;2.03;;;6.20;99.90;;;;;;5076981;28;20446;-72
2023/04/03 07:57:47;;;;;;;3.13;2.17;;;6.40;99.90;;;;;;5077414;28;20028;-69
2023/04/03 08:00:15;;;;;;;5.22;2.00;;;6.70;99.90;;;;;;5094842;28;20031;-70
2023/04/03 08:02:40;;;;;;;3.85;2.00;;;7.20;99.90;;;;;;5076740;28;20020;-70
2023/04/03 08:05:06;;;;;;;4.03;1.95;;;7.40;99.90;;;;;;5094928;28;20487;-69
2023/04/03 08:07:32;;;;;;;3.60;1.98;;;7.20;99.90;;;;;;5094550;28;20150;-71
2023/04/03 08:09:57;;;;;;;3.42;2.22;;;7.40;99.80;;;;;;5094517;28;20078;-70
2023/04/03 08:12:23;;;;;;;3.65;2.13;;;7.40;98.30;;;;;;5076155;28;20020;-70
2023/04/03 08:14:49;;;;;;;4.60;2.20;;;7.00;97.00;;;;;;5094034;28;20028;-70
2023/04/03 08:17:15;;;;;;;4.82;2.22;;;7.50;96.90;;;;;;5075767;28;20452;-71
2023/04/03 08:19:41;;;;;;;4.20;1.90;;;8.00;95.60;;;;;;5076172;28;20028;-71
2023/04/03 08:22:06;;;;;;;4.00;1.70;;;8.40;93.40;;;;;;5093701;28;20383;-71
2023/04/03 08:24:35;;;;;;;4.25;2.47;;;8.80;89.60;;;;;;5093674;28;20028;-71
2023/04/03 08:27:01;;;;;;;5.85;1.85;;;8.70;90.20;;;;;;5093871;28;20024;-71
2023/04/03 08:29:28;;;;;;;3.95;2.13;;;8.60;90.90;;;;;;5093974;28;20031;-71
2023/04/03 08:31:54;;;;;;;2.90;1.88;;;8.80;90.40;;;;;;5076370;28;20402;-71
2023/04/03 08:34:20;;;;;;;3.40;1.70;;;9.30;88.90;;;;;;5093365;28;20031;-71
2023/04/03 08:36:46;;;;;;;2.70;1.55;;;9.30;81.20;;;;;;5075494;28;20024;-70
2023/04/03 08:39:12;;;;;;;4.28;1.73;;;8.60;81.10;;;;;;5075487;28;20031;-71
2023/04/03 08:41:41;;;;;;;3.08;2.00;;;8.10;83.50;;;;;;5093603;28;20033;-71
2023/04/03 08:44:25;;;;;;;4.00;1.73;;;8.30;80.70;;;;;;5075323;28;20028;-70
2023/04/03 08:47:10;;;;;;;7.47;1.73;;;8.90;80.10;;;;;;5075477;28;20119;-70
2023/04/03 08:49:50;;;;;;;4.68;1.83;;;9.10;74.20;;;;;;5075399;28;20024;-71
2023/04/03 08:52:47;;;;;;;3.47;2.28;;;8.70;76.10;;;;;;5075597;28;20037;-70
2023/04/03 08:55:48;;;;;;;2.97;1.92;;;8.40;77.00;;;;;;5096219;28;20538;-71
2023/04/03 08:58:29;;;;;;;4.97;1.50;;;7.90;75.80;;;;;;5079670;28;20024;-70
2023/04/03 09:01:06;;;;;;;6.72;2.00;;;7.90;77.40;;;;;;5097153;28;20384;-70
2023/04/03 09:03:36;;;;;;;2.10;1.80;;;8.00;76.30;;;;;;5079549;28;20024;-71
2023/04/03 09:06:15;;;;;;;6.40;1.80;;;7.80;76.20;;;;;;5079334;28;20024;-70
2023/04/03 09:09:16;;;;;;;3.30;1.80;;;7.90;77.80;;;;;;5080752;28;20098;-71
2023/04/03 09:11:54;;;;;;;2.95;1.67;;;7.80;77.70;;;;;;5052457;28;20040;-70
2023/04/03 09:14:26;;;;;;;2.90;1.50;;;7.80;77.80;;;;;;5079287;28;20421;-71
2023/04/03 09:16:58;;;;;;;5.03;1.65;;;8.80;78.30;;;;;;5097133;28;20051;-69
2023/04/03 09:19:30;;;;;;;2.53;1.73;;;10.10;71.10;;;;;;5078602;28;20057;-70
2023/04/03 09:22:10;;;;;;;4.93;2.55;;;10.00;70.10;;;;;;5078628;28;20028;-70
2023/04/03 09:24:36;;;;;;;3.15;1.70;;;9.90;69.40;;;;;;5078615;28;20053;-70
2023/04/03 09:27:10;;;;;;;4.28;2.40;;;8.90;70.30;;;;;;5097259;28;20036;-70
2023/04/03 09:29:43;;;;;;;3.67;2.08;;;7.80;73.70;;;;;;5097530;28;20031;-70
2023/04/03 09:32:29;;;;;;;3.30;2.05;;;7.30;75.60;;;;;;5079342;28;20030;-71
2023/04/03 09:35:01;;;;;;;4.03;2.45;;;7.10;78.50;;;;;;5079342;28;20490;-70
2023/04/03 09:37:38;;;;;;;3.33;1.77;;;6.80;76.40;;;;;;5096718;28;20412;-70
2023/04/03 09:40:05;;;;;;;4.55;1.88;;;6.50;77.40;;;;;;5078439;28;20089;-70
2023/04/03 09:42:32;;;;;;;3.60;2.13;;;6.30;78.30;;;;;;5096906;28;20076;-70
2023/04/03 09:44:59;;;;;;;4.45;1.60;;;6.50;78.00;;;;;;5078764;28;20028;-70
2023/04/03 09:47:33;;;;;;;2.42;1.40;;;6.60;76.50;;;;;;5078641;28;20066;-70
2023/04/03 09:50:14;;;;;;;2.65;1.27;;;6.60;72.50;;;;;;5097099;28;20028;-70
2023/04/03 09:52:42;;;;;;;2.85;1.65;;;6.70;72.40;;;;;;5096035;28;20527;-70
2023/04/03 09:55:26;;;;;;;2.58;1.67;;;6.90;70.20;;;;;;5078218;28;20075;-70
2023/04/03 09:57:56;;;;;;;2.63;1.25;;;7.10;70.20;;;;;;5095957;28;20105;-70
2023/04/03 10:00:25;;;;;;;4.07;1.42;;;8.40;69.10;;;;;;5095489;28;20051;-70
2023/04/03 10:02:55;;;;;;;1.88;1.55;;;8.80;65.50;;;;;;5096446;28;20034;-70
2023/04/03 10:05:39;;;;;;;1.58;1.27;;;8.60;63.10;;;;;;5095592;28;20110;-70
2023/04/03 10:08:13;;;;;;;2.83;1.15;;;9.20;62.20;;;;;;5077589;28;20020;-70
2023/04/03 10:10:41;;;;;;;1.60;1.30;;;9.70;61.90;;;;;;5077964;28;20099;-69
2023/04/03 10:13:18;;;;;;;4.93;1.63;;;9.90;59.90;;;;;;5095734;28;20046;-69
2023/04/03 10:15:48;;;;;;;2.75;1.00;;;9.50;58.80;;;;;;5095653;28;20024;-70
2023/04/03 10:18:33;;;;;;;3.63;1.58;;;9.10;60.30;;;;;;5077726;28;20075;-69
2023/04/03 10:21:20;;;;;;;1.85;1.50;;;8.50;61.30;;;;;;5077725;28;20024;-70
2023/04/03 10:24:00;;;;;;;2.33;1.63;;;8.20;61.10;;;;;;5096509;28;20071;-70
2023/04/03 10:26:52;;;;;;;3.33;1.30;;;7.80;61.40;;;;;;5078625;28;20430;-70
2023/04/03 10:29:30;;;;;;;2.72;1.30;;;7.70;61.80;;;;;;5097156;28;20100;-70
2023/04/03 10:32:09;;;;;;;3.10;1.48;;;7.90;62.50;;;;;;5094316;28;20020;-70
2023/04/03 10:34:44;;;;;;;2.60;1.23;;;8.00;61.60;;;;;;5093856;28;20096;-69
2023/04/03 10:37:37;;;;;;;3.03;1.02;;;7.80;59.90;;;;;;5078409;28;20157;-69
2023/04/03 10:40:22;;;;;;;8.43;1.70;;;7.50;60.80;;;;;;5096371;28;20547;-69
2023/04/03 10:42:57;;;;;;;2.00;1.40;;;7.10;60.80;;;;;;5078463;28;20024;-70
2023/04/03 10:45:29;;;;;;;4.32;1.25;;;8.00;62.00;;;;;;5096685;28;20117;-70
2023/04/03 10:48:11;;;;;;;1.73;1.40;;;9.40;58.80;;;;;;5095202;28;20452;-71
2023/04/03 10:50:52;;;;;;;3.70;1.55;;;11.00;55.90;;;;;;5095014;28;20028;-70
2023/04/03 10:53:44;;;;;;;3.97;1.60;;;11.30;51.80;;;;;;5094866;28;20054;-69
2023/04/03 10:56:25;;;;;;;3.03;1.67;;;10.30;52.70;;;;;;5076693;28;20043;-69
2023/04/03 10:59:00;;;;;;;7.18;1.42;;;10.50;54.40;;;;;;5076721;28;20127;-69
2023/04/03 11:01:34;;;;;;;2.30;1.90;;;10.60;53.40;;;;;;5076780;28;20038;-69
2023/04/03 11:04:03;;;;;;;2.42;1.67;;;11.00;54.20;;;;;;5094555;28;20534;-70
2023/04/03 11:06:38;;;;;;;1.85;1.30;;;10.90;52.00;;;;;;5094795;28;20042;-69
2023/04/03 11:09:22;;;;;;;1.88;1.45;;;10.50;53.20;;;;;;5094724;28;20490;-70
2023/04/03 11:11:50;;;;;;;4.30;1.52;;;10.30;52.50;;;;;;5094666;28;20121;-71
2023/04/03 11:14:42;;;;;;;2.00;1.55;;;10.30;53.20;;;;;;5076631;28;20031;-70
2023/04/03 11:17:21;;;;;;;3.53;1.40;;;10.20;52.30;;;;;;5089936;28;20051;-70
2023/04/03 11:19:47;;;;;;;1.63;1.13;;;10.00;52.30;;;;;;5094634;28;20038;-69
2023/04/03 11:22:23;;;;;;;2.47;1.40;;;11.00;51.80;;;;;;5094351;28;20441;-70
2023/04/03 11:25:13;;;;;;;2.33;1.00;;;11.90;47.50;;;;;;5094242;28;20032;-72
2023/04/03 11:27:46;;;;;;;2.15;1.42;;;12.60;50.20;;;;;;5095314;28;20024;-71
2023/04/03 11:30:25;;;;;;;1.98;1.40;;;13.60;45.80;;;;;;5096261;28;20022;-71
2023/04/03 11:32:54;;;;;;;3.38;1.73;;;13.80;43.50;;;;;;5095411;28;20028;-71
2023/04/03 11:35:20;;;;;;;;;;;12.50;42.90;;;;;;5078271;28;20468;-73
2023/04/03 11:37:50;;;;;;;6.20;1.40;;;12.90;42.90;;;;;;5077537;28;19912;-73
2023/04/03 11:40:16;;;;;;;3.05;1.88;;;12.80;43.30;;;;;;5077489;28;20046;-73
2023/04/03 11:42:51;;;;;;;1.63;1.35;;;13.40;43.20;;;;;;5075726;28;20024;-73
2023/04/03 11:45:24;;;;;;;3.20;1.27;;;14.20;41.60;;;;;;5093934;28;20032;-73
2023/04/03 11:48:18;;;;;;;2.38;1.60;;;14.60;41.00;;;;;;5093770;28;20054;-72
2023/04/03 11:50:48;;;;;;;2.40;1.90;;;16.00;39.40;;;;;;5093928;28;20035;-72
2023/04/03 11:53:13;;;;;;;1.83;1.40;;;15.90;37.70;;;;;;5093222;28;20139;-73
2023/04/03 11:55:45;;;;;;;2.20;1.67;;;14.70;38.80;;;;;;5094331;28;20099;-72
2023/04/03 11:58:28;;;;;;;2.65;1.42;;;13.30;38.80;;;;;;5076750;28;20031;-72
2023/04/03 12:00:59;;;;;;;2.63;1.45;;;11.90;41.20;;;;;;5076362;28;20054;-72
2023/04/03 12:03:24;;;;;;;3.10;1.30;;;10.90;43.40;;;;;;5075622;28;20034;-72
2023/04/03 12:06:06;;;;;;;7.43;1.42;;;10.60;44.00;;;;;;5094034;28;20090;-72
2023/04/03 12:08:41;;;;;;;2.55;1.38;;;10.20;44.30;;;;;;5093859;28;20027;-71
2023/04/03 12:11:10;;;;;;;3.22;1.58;;;9.50;45.00;;;;;;5075804;28;20020;-71
2023/04/03 12:13:38;;;;;;;4.07;1.58;;;9.10;46.50;;;;;;5094253;28;20095;-73
2023/04/03 12:16:26;;;;;;;3.75;1.92;;;9.10;47.40;;;;;;5076139;28;20051;-72
2023/04/03 12:18:55;;;;;;;1.23;1.13;;;8.80;46.60;;;;;;5079833;28;20024;-72
2023/04/03 12:21:21;;;;;;;;;;;8.30;47.30;;;;;;5081006;28;20024;-72
2023/04/03 12:24:00;;;;;;;3.95;1.58;;;8.00;47.80;;;;;;5100072;28;19908;-72
2023/04/03 12:26:36;;;;;;;2.80;1.70;;;8.10;47.80;;;;;;5077110;28;20024;-72
2023/04/03 12:29:24;;;;;;;1.85;1.45;;;7.70;46.60;;;;;;5078228;28;20031;-72
2023/04/03 12:32:11;;;;;;;3.20;1.70;;;7.30;47.90;;;;;;5080747;28;20162;-73
2023/04/03 12:35:16;;;;;;;3.85;1.80;;;7.10;47.60;;;;;;5080312;28;20031;-72
2023/04/03 12:38:12;;;;;;;3.40;1.60;;;6.70;49.30;;;;;;5097690;28;20039;-73
2023/04/03 12:41:15;;;;;;;2.00;1.25;;;6.60;51.00;;;;;;5080519;28;20020;-73
2023/04/03 12:44:19;;;;;;;4.55;2.20;;;6.60;51.60;;;;;;5098818;28;20452;-73
2023/04/03 12:46:50;;;;;;;2.45;1.65;;;6.40;51.90;;;;;;5097611;28;20019;-73
2023/04/03 12:49:32;;;;;;;4.07;1.70;;;6.20;51.70;;;;;;5097962;28;20016;-72
2023/04/03 12:51:58;;;;;;;3.05;1.50;;;6.20;51.60;;;;;;5080332;28;20020;-73
2023/04/03 12:54:30;;;;;;;3.42;1.70;;;6.20;51.60;;;;;;5078961;28;20058;-72
2023/04/03 12:57:15;;;;;;;5.95;1.83;;;6.10;51.40;;;;;;5079319;28;20017;-72
2023/04/03 12:59:43;;;;;;;3.75;1.90;;;6.20;52.10;;;;;;5080024;28;20035;-73
2023/04/03 13:02:23;;;;;;;4.13;1.90;;;6.40;52.40;;;;;;5079558;28;20020;-72
2023/04/03 13:04:50;;;;;;;3.92;1.67;;;6.60;51.00;;;;;;5081206;28;20544;-73
2023/04/03 13:07:28;;;;;;;7.00;1.90;;;6.80;51.30;;;;;;5098846;28;20035;-73
2023/04/03 13:10:15;;;;;;;3.22;1.80;;;6.70;49.40;;;;;;5080832;28;20020;-73
2023/04/03 13:12:53;;;;;;;3.13;1.48;;;6.80;49.80;;;;;;5079657;28;20058;-73
2023/04/03 13:15:29;;;;;;;2.53;1.57;;;6.60;49.00;;;;;;5099822;28;20031;-72